Camp Point, Illinois
Current Conditions -  °F | °C
As of 10:29 AM on Monday 22 Dec 2014 (Local Time) from KUIN Reporting Station
Light Rain Light Rain  
Wind Chill: 32°   Ceiling: 600
Heat Index: 39°   Visibility: 1.7mi
Dew Point: 38°   Wind: 12mph
Humidity: 96%   Direction: 140°SE
Pressure: 29.67"   Gusts: NA
Location:  40.04°N, 91.07°W
Report Text: KUIN 221629Z AUTO 14010KT 1 3/4SM -RA BR OVC006 04/03 A2967 RMK AO2 P0000 T00390033
Loading
Personal Weather Stations






























Interactive Weather Map New forecast layout! Learn more

10-Day Weather Forecast

Advertisements
Track Severe Weather on mobile